createdAt,value
2023-04-18T00:00:15.909Z,7.8440
2023-04-18T00:01:16.429Z,7.8349
2023-04-18T00:02:16.984Z,7.8467
2023-04-18T00:03:17.944Z,7.8444
2023-04-18T00:04:19.800Z,7.8523
2023-04-18T00:05:21.766Z,7.8295
2023-04-18T00:06:22.673Z,7.8865
2023-04-18T00:07:23.156Z,7.8519
2023-04-18T00:08:23.632Z,7.8977
2023-04-18T00:09:24.152Z,7.9086
2023-04-18T00:10:24.743Z,7.9225
2023-04-18T00:11:25.199Z,7.9773
2023-04-18T00:12:25.816Z,8.0214
2023-04-18T00:13:26.252Z,8.0124
2023-04-18T00:14:26.763Z,8.0068
2023-04-18T00:15:27.218Z,8.0138
2023-04-18T00:16:27.818Z,8.0178
2023-04-18T00:17:28.414Z,8.0083
2023-04-18T00:18:28.946Z,8.0276
2023-04-18T00:19:29.418Z,8.0098
2023-04-18T00:20:29.928Z,7.9842
2023-04-18T00:21:30.346Z,7.9799
2023-04-18T00:22:30.830Z,8.0331
2023-04-18T00:23:31.432Z,8.0436
2023-04-18T00:24:31.889Z,8.0732
2023-04-18T00:25:32.459Z,8.0627
2023-04-18T00:26:32.919Z,8.0553
2023-04-18T00:27:33.432Z,8.0320
2023-04-18T00:28:34.003Z,8.0331
2023-04-18T00:29:34.473Z,8.0403
2023-04-18T00:30:35.998Z,8.0262
2023-04-18T00:31:36.566Z,8.0912
2023-04-18T00:32:37.053Z,8.0514
2023-04-18T00:33:37.631Z,8.0395
2023-04-18T00:34:38.088Z,8.0677
2023-04-18T00:35:38.579Z,8.0784
2023-04-18T00:36:39.078Z,8.0601
2023-04-18T00:37:39.529Z,8.0640
2023-04-18T00:38:40.114Z,8.0761
2023-04-18T00:39:40.656Z,8.0571
2023-04-18T00:40:41.200Z,8.0527
2023-04-18T00:41:41.723Z,8.1016
2023-04-18T00:42:42.410Z,8.0806
2023-04-18T00:43:43.072Z,8.1326
2023-04-18T00:44:43.616Z,8.1471
2023-04-18T00:45:44.073Z,8.1399
2023-04-18T00:46:44.554Z,8.1338
2023-04-18T00:47:45.105Z,8.1335
2023-04-18T00:48:45.657Z,8.1086
2023-04-18T00:49:46.152Z,8.1195
2023-04-18T00:50:46.654Z,8.1120
2023-04-18T00:51:47.178Z,8.1087
2023-04-18T00:52:47.700Z,8.1731
2023-04-18T00:53:48.343Z,8.1742
2023-04-18T00:54:49.015Z,8.1595
2023-04-18T00:55:49.524Z,8.1125
2023-04-18T00:56:49.973Z,8.1362
2023-04-18T00:57:50.510Z,8.1417
2023-04-18T00:58:50.953Z,8.1578
2023-04-18T00:59:51.452Z,8.1548
2023-04-18T01:00:51.927Z,8.1439
2023-04-18T01:01:52.493Z,8.1380
2023-04-18T01:02:53.190Z,8.1213
2023-04-18T01:03:54.630Z,8.1197
2023-04-18T01:04:55.580Z,8.0999
2023-04-18T01:05:56.182Z,8.1143
2023-04-18T01:06:56.651Z,8.1182
2023-04-18T01:07:57.093Z,8.1356
2023-04-18T01:08:57.606Z,8.1098
2023-04-18T01:09:58.054Z,8.0724
2023-04-18T01:10:58.499Z,8.0915
2023-04-18T01:11:58.965Z,8.1273
2023-04-18T01:12:59.426Z,8.1277
2023-04-18T01:13:59.878Z,8.1668
2023-04-18T01:15:00.370Z,8.1667
2023-04-18T01:16:00.850Z,8.1790
2023-04-18T01:17:01.352Z,8.1906
2023-04-18T01:18:01.892Z,8.1909
2023-04-18T01:19:02.416Z,8.1579
2023-04-18T01:20:02.952Z,8.1721
2023-04-18T01:21:03.463Z,8.1548
2023-04-18T01:22:03.951Z,8.1290
2023-04-18T01:23:04.431Z,8.1655
2023-04-18T01:24:04.904Z,8.1389
2023-04-18T01:25:05.361Z,8.1283
2023-04-18T01:26:05.822Z,8.1465
2023-04-18T01:27:06.303Z,8.1628
2023-04-18T01:28:06.731Z,8.1323
2023-04-18T01:29:07.240Z,8.1462
2023-04-18T01:30:07.686Z,8.1532
2023-04-18T01:31:08.159Z,8.1847
2023-04-18T01:32:08.649Z,8.1386
2023-04-18T01:33:09.110Z,8.1457
2023-04-18T01:34:09.629Z,8.1865
2023-04-18T01:35:10.087Z,8.1629
2023-04-18T01:36:10.562Z,8.1566
2023-04-18T01:37:11.075Z,8.1199
2023-04-18T01:38:11.628Z,8.1351
2023-04-18T01:39:12.195Z,8.1767
2023-04-18T01:40:12.705Z,8.0969
2023-04-18T01:41:13.191Z,8.1253
2023-04-18T01:42:13.660Z,8.1490
2023-04-18T01:43:14.105Z,8.1531
2023-04-18T01:44:14.776Z,8.1527
2023-04-18T01:45:15.894Z,8.1588
2023-04-18T01:46:16.404Z,8.1740
2023-04-18T01:47:16.844Z,8.1628
2023-04-18T01:48:17.281Z,8.1847
2023-04-18T01:49:17.769Z,8.1485
2023-04-18T01:50:18.334Z,8.1399
2023-04-18T01:51:18.911Z,8.0957
2023-04-18T01:52:19.391Z,8.0909
2023-04-18T01:53:19.843Z,8.0987
2023-04-18T01:54:20.366Z,8.0856
2023-04-18T01:55:20.861Z,8.0614
2023-04-18T01:56:21.480Z,8.0733
2023-04-18T01:57:22.282Z,8.0659
2023-04-18T01:58:23.118Z,8.1028
2023-04-18T01:59:23.581Z,8.1208
2023-04-18T02:00:24.092Z,8.1243
2023-04-18T02:01:24.701Z,8.1380
2023-04-18T02:02:25.565Z,8.1406
2023-04-18T02:03:26.432Z,8.1449
2023-04-18T02:04:27.502Z,8.0779
2023-04-18T02:05:28.017Z,8.1093
2023-04-18T02:06:28.567Z,8.1009
2023-04-18T02:07:29.100Z,8.0800
2023-04-18T02:08:29.635Z,8.1015
2023-04-18T02:09:30.221Z,8.1634
2023-04-18T02:10:30.748Z,8.1163
2023-04-18T02:11:31.317Z,8.0682
2023-04-18T02:12:31.871Z,8.0867
2023-04-18T02:13:32.488Z,8.1207
2023-04-18T02:14:33.030Z,8.1254
2023-04-18T02:15:33.595Z,8.1409
2023-04-18T02:16:34.202Z,8.1567
2023-04-18T02:17:34.905Z,8.1124
2023-04-18T02:18:35.517Z,8.1181
2023-04-18T02:19:36.050Z,8.1047
2023-04-18T02:20:36.565Z,8.0910
2023-04-18T02:21:37.076Z,8.0712
2023-04-18T02:22:37.682Z,8.0682
2023-04-18T02:23:38.205Z,8.0919
2023-04-18T02:24:38.736Z,8.0884
2023-04-18T02:25:39.260Z,8.1079
2023-04-18T02:26:39.860Z,8.0806
2023-04-18T02:27:40.379Z,8.1014
2023-04-18T02:28:40.966Z,8.1245
2023-04-18T02:29:41.463Z,8.1305
2023-04-18T02:30:41.942Z,8.1301
2023-04-18T02:31:42.584Z,8.1413
2023-04-18T02:32:43.171Z,8.1483
2023-04-18T02:33:43.679Z,8.1183
2023-04-18T02:34:44.255Z,8.1472
2023-04-18T02:35:44.832Z,8.1657
2023-04-18T02:36:45.443Z,8.1325
2023-04-18T02:37:46.024Z,8.1762
2023-04-18T02:38:46.853Z,8.1202
2023-04-18T02:39:47.413Z,8.0907
2023-04-18T02:40:47.943Z,8.1039
2023-04-18T02:41:48.573Z,8.0934
2023-04-18T02:42:49.086Z,8.1122
2023-04-18T02:43:49.631Z,8.0811
2023-04-18T02:44:50.117Z,8.1003
2023-04-18T02:45:50.702Z,8.1022
2023-04-18T02:46:51.403Z,8.0786
2023-04-18T02:47:56.176Z,8.0867
2023-04-18T02:48:52.550Z,8.0959
2023-04-18T02:49:53.105Z,8.0772
2023-04-18T02:50:53.752Z,8.0975
2023-04-18T02:51:54.282Z,8.0752
2023-04-18T02:52:54.859Z,8.1088
2023-04-18T02:53:55.393Z,8.1118
2023-04-18T02:54:55.991Z,8.0998
2023-04-18T02:55:56.489Z,8.0819
2023-04-18T02:56:57.133Z,8.0900
2023-04-18T02:57:57.721Z,8.0747
2023-04-18T02:58:58.253Z,8.0633
2023-04-18T02:59:58.793Z,8.0700
2023-04-18T03:00:59.404Z,8.0802
2023-04-18T03:02:00.024Z,8.0607
2023-04-18T03:03:00.655Z,8.0705
2023-04-18T03:04:01.211Z,8.0878
2023-04-18T03:05:01.775Z,8.0701
2023-04-18T03:06:02.338Z,8.0578
2023-04-18T03:07:02.903Z,8.0508
2023-04-18T03:08:03.622Z,8.0589
2023-04-18T03:09:04.401Z,8.0438
2023-04-18T03:10:04.990Z,8.0756
2023-04-18T03:11:05.460Z,8.0755
2023-04-18T03:12:06.158Z,8.0243
2023-04-18T03:13:06.649Z,8.0432
2023-04-18T03:14:07.180Z,8.0272
2023-04-18T03:15:07.756Z,8.0414
2023-04-18T03:16:08.317Z,8.0407
2023-04-18T03:17:09.001Z,8.0494
2023-04-18T03:18:09.543Z,8.0624
2023-04-18T03:19:10.098Z,8.0935
2023-04-18T03:20:10.649Z,8.0880
2023-04-18T03:21:11.233Z,8.0872
2023-04-18T03:22:11.788Z,8.0670
2023-04-18T03:23:12.299Z,8.0454
2023-04-18T03:24:13.613Z,8.0419
2023-04-18T03:25:14.888Z,8.0092
2023-04-18T03:26:15.419Z,7.9887
2023-04-18T03:27:16.000Z,8.0107
2023-04-18T03:28:16.527Z,8.0272
2023-04-18T03:29:17.122Z,8.0023
2023-04-18T03:30:17.654Z,8.0114
2023-04-18T03:31:18.258Z,8.0043
2023-04-18T03:32:19.017Z,8.0257
2023-04-18T03:33:19.743Z,8.0157
2023-04-18T03:34:20.227Z,8.0267
2023-04-18T03:35:20.726Z,8.0233
2023-04-18T03:36:21.299Z,8.0547
2023-04-18T03:37:21.870Z,8.0441
2023-04-18T03:38:22.606Z,8.0551
2023-04-18T03:39:23.212Z,8.0694
2023-04-18T03:40:23.764Z,8.0510
2023-04-18T03:41:24.310Z,8.0448
2023-04-18T03:42:24.849Z,8.0609
2023-04-18T03:43:25.461Z,8.0551
2023-04-18T03:44:26.080Z,8.0853
2023-04-18T03:45:26.593Z,8.0618
2023-04-18T03:46:27.132Z,8.0336
2023-04-18T03:47:27.695Z,8.0548
2023-04-18T03:48:28.229Z,8.0164
2023-04-18T03:49:28.746Z,8.0300
2023-04-18T03:50:29.345Z,8.0355
2023-04-18T03:51:29.876Z,7.9964
2023-04-18T03:52:30.467Z,8.0496
2023-04-18T03:53:31.015Z,8.0421
2023-04-18T03:54:31.501Z,8.0464
2023-04-18T03:55:32.049Z,8.0572
2023-04-18T03:56:32.569Z,8.0578
2023-04-18T03:57:33.193Z,8.0561
2023-04-18T03:58:33.720Z,8.0449
2023-04-18T03:59:34.274Z,8.0840
2023-04-18T04:00:34.860Z,8.0908
2023-04-18T04:01:35.425Z,8.0855
2023-04-18T04:02:36.144Z,8.0910
2023-04-18T04:03:37.275Z,8.0991
2023-04-18T04:04:38.256Z,8.1248
2023-04-18T04:05:38.949Z,8.0935
2023-04-18T04:06:39.499Z,8.0859
2023-04-18T04:07:40.154Z,8.0984
2023-04-18T04:08:40.676Z,8.1026
2023-04-18T04:09:41.262Z,8.0775
2023-04-18T04:10:41.754Z,8.0567
2023-04-18T04:11:42.359Z,8.0756
2023-04-18T04:12:42.921Z,8.0479
2023-04-18T04:13:43.484Z,8.0598
2023-04-18T04:14:44.093Z,8.0577
2023-04-18T04:15:44.751Z,8.0679
2023-04-18T04:16:45.326Z,8.0981
2023-04-18T04:17:46.165Z,8.0565
2023-04-18T04:18:46.762Z,8.0768
2023-04-18T04:19:47.350Z,8.0685
2023-04-18T04:20:47.973Z,8.0618
2023-04-18T04:21:48.599Z,8.0444
2023-04-18T04:22:49.176Z,8.0388
2023-04-18T04:23:49.762Z,8.0247
2023-04-18T04:24:50.475Z,8.0163
2023-04-18T04:25:51.021Z,8.0380
2023-04-18T04:26:51.661Z,8.0531
2023-04-18T04:27:52.239Z,8.0528
2023-04-18T04:28:52.853Z,8.0453
2023-04-18T04:29:53.367Z,8.0689
2023-04-18T04:30:53.929Z,8.0727
2023-04-18T04:31:54.467Z,8.0651
2023-04-18T04:32:55.251Z,8.0423
2023-04-18T04:33:55.842Z,8.0694
2023-04-18T04:34:56.490Z,8.0335
2023-04-18T04:35:57.101Z,8.0401
2023-04-18T04:36:57.663Z,8.0420
2023-04-18T04:37:58.216Z,8.0218
2023-04-18T04:38:58.796Z,8.0407
2023-04-18T04:39:59.371Z,8.0423
2023-04-18T04:40:59.919Z,8.0643
2023-04-18T04:42:00.864Z,8.0625
2023-04-18T04:43:01.460Z,8.0316
2023-04-18T04:44:02.063Z,8.0047
2023-04-18T04:45:02.636Z,7.9451
2023-04-18T04:46:03.181Z,7.9927
2023-04-18T04:47:03.931Z,7.9745
2023-04-18T04:48:04.500Z,7.9442
2023-04-18T04:49:05.073Z,7.9961
2023-04-18T04:50:05.607Z,8.0323
2023-04-18T04:51:06.173Z,8.0372
2023-04-18T04:52:06.735Z,8.0605
2023-04-18T04:53:07.319Z,8.0486
2023-04-18T04:54:07.831Z,8.0415
2023-04-18T04:55:08.434Z,8.0666
2023-04-18T04:56:09.180Z,8.0622
2023-04-18T04:57:09.829Z,8.0558
2023-04-18T04:58:10.359Z,8.0741
2023-04-18T04:59:10.884Z,8.0822
2023-04-18T05:00:11.365Z,8.0760
2023-04-18T05:01:11.999Z,8.0579
2023-04-18T05:02:12.620Z,8.0562
2023-04-18T05:03:13.606Z,8.0619
2023-04-18T05:04:15.073Z,8.0459
2023-04-18T05:05:16.827Z,8.0468
2023-04-18T05:06:17.450Z,8.0518
2023-04-18T05:07:18.060Z,8.0929
2023-04-18T05:08:18.669Z,8.0404
2023-04-18T05:09:19.278Z,8.0317
2023-04-18T05:10:19.851Z,8.0253
2023-04-18T05:11:20.425Z,8.0424
2023-04-18T05:12:21.007Z,8.0338
2023-04-18T05:13:21.580Z,8.0562
2023-04-18T05:14:22.190Z,8.0488
2023-04-18T05:15:22.832Z,8.0544
2023-04-18T05:16:23.415Z,8.0594
2023-04-18T05:17:24.195Z,8.0390
2023-04-18T05:18:24.772Z,8.0708
2023-04-18T05:19:25.350Z,8.0717
2023-04-18T05:20:26.199Z,8.0322
2023-04-18T05:21:26.706Z,8.0343
2023-04-18T05:22:27.313Z,8.0451
2023-04-18T05:23:27.894Z,8.0578
2023-04-18T05:24:28.503Z,8.0700
2023-04-18T05:25:29.058Z,8.0544
2023-04-18T05:26:29.599Z,8.0586
2023-04-18T05:27:30.177Z,8.0452
2023-04-18T05:28:30.761Z,8.0957
2023-04-18T05:29:31.411Z,8.0668
2023-04-18T05:30:32.054Z,8.0807
2023-04-18T05:31:32.664Z,8.1048
2023-04-18T05:32:33.288Z,8.0888
2023-04-18T05:33:33.831Z,8.1158
2023-04-18T05:34:36.102Z,8.1012
2023-04-18T05:35:34.781Z,8.1246
2023-04-18T05:36:35.381Z,8.1343
2023-04-18T05:37:36.010Z,8.1282
2023-04-18T05:38:36.657Z,8.1614
2023-04-18T05:39:37.246Z,8.1645
2023-04-18T05:40:37.859Z,8.1550
2023-04-18T05:41:38.502Z,8.1364
2023-04-18T05:42:39.094Z,8.1252
2023-04-18T05:43:39.705Z,8.1473
2023-04-18T05:44:41.336Z,8.1501
2023-04-18T05:45:41.928Z,8.1566
2023-04-18T05:46:42.559Z,8.1574
2023-04-18T05:47:43.336Z,8.1670
2023-04-18T05:48:43.906Z,8.1770
2023-04-18T05:49:44.596Z,8.1568
2023-04-18T05:50:45.210Z,8.1411
2023-04-18T05:51:45.826Z,8.1771
2023-04-18T05:52:46.393Z,8.2334
2023-04-18T05:53:46.981Z,8.2012
2023-04-18T05:54:47.565Z,8.2062
2023-04-18T05:55:48.105Z,8.2040
2023-04-18T05:56:48.864Z,8.2162
2023-04-18T05:57:49.695Z,8.2235
2023-04-18T05:58:50.316Z,8.2506
2023-04-18T05:59:50.893Z,8.2560
2023-04-18T06:00:51.447Z,8.2422
2023-04-18T06:01:52.157Z,8.2469
2023-04-18T06:02:52.937Z,8.2439
2023-04-18T06:03:54.437Z,8.2927
2023-04-18T06:04:55.745Z,8.2799
2023-04-18T06:05:57.062Z,8.2863
2023-04-18T06:06:58.153Z,8.2688
2023-04-18T06:07:58.747Z,8.2942
2023-04-18T06:08:59.377Z,8.3164
2023-04-18T06:09:59.874Z,8.3283
2023-04-18T06:11:00.411Z,8.3396
2023-04-18T06:12:00.940Z,8.3255
2023-04-18T06:13:01.495Z,8.2990
2023-04-18T06:14:02.240Z,8.3031
2023-04-18T06:15:02.866Z,8.3455
2023-04-18T06:16:03.509Z,8.3567
2023-04-18T06:17:04.115Z,8.3825
2023-04-18T06:18:04.749Z,8.4213
2023-04-18T06:19:05.437Z,8.4380
2023-04-18T06:20:05.981Z,8.4413
2023-04-18T06:21:06.503Z,8.4504
2023-04-18T06:22:07.069Z,8.4471
2023-04-18T06:23:07.642Z,8.4635
2023-04-18T06:24:08.172Z,8.4102
2023-04-18T06:25:08.737Z,8.4300
2023-04-18T06:26:09.318Z,8.4701
2023-04-18T06:27:17.683Z,8.4761
2023-04-18T06:28:10.306Z,8.4343
2023-04-18T06:29:10.939Z,8.4300
2023-04-18T06:30:11.467Z,8.4262
2023-04-18T06:31:12.250Z,8.4354
2023-04-18T06:32:12.832Z,8.4512
2023-04-18T06:33:13.434Z,8.4839
2023-04-18T06:34:14.213Z,8.4794
2023-04-18T06:35:15.380Z,8.4757
2023-04-18T06:36:15.944Z,8.4640
2023-04-18T06:37:16.478Z,8.4617
2023-04-18T06:38:17.103Z,8.4941
2023-04-18T06:39:17.707Z,8.4742
2023-04-18T06:40:18.271Z,8.4707
2023-04-18T06:41:18.827Z,8.4096
2023-04-18T06:42:22.079Z,8.4546
2023-04-18T06:43:20.988Z,8.4831
2023-04-18T06:44:21.552Z,8.5203
2023-04-18T06:45:22.118Z,8.5874
2023-04-18T06:46:22.864Z,8.6016
2023-04-18T06:47:23.702Z,8.5685
2023-04-18T06:48:24.267Z,8.5710
2023-04-18T06:49:26.477Z,8.5751
2023-04-18T06:50:24.914Z,8.6154
2023-04-18T06:51:25.434Z,8.6019
2023-04-18T06:52:25.998Z,8.6166
2023-04-18T06:53:26.513Z,8.5968
2023-04-18T06:54:27.181Z,8.6029
2023-04-18T06:55:27.734Z,8.6163
2023-04-18T06:56:28.310Z,8.5838
2023-04-18T06:57:28.784Z,8.5916
2023-04-18T06:58:29.325Z,8.5971
2023-04-18T06:59:29.991Z,8.6230
2023-04-18T07:00:30.708Z,8.6702
2023-04-18T07:01:31.286Z,8.6056
2023-04-18T07:02:32.199Z,8.5759
2023-04-18T07:03:33.063Z,8.5712
2023-04-18T07:04:34.854Z,8.5577
2023-04-18T07:05:35.438Z,8.6242
2023-04-18T07:06:36.094Z,8.6185
2023-04-18T07:07:36.699Z,8.5978
2023-04-18T07:08:37.412Z,8.5795
2023-04-18T07:09:38.023Z,8.6452
2023-04-18T07:10:38.623Z,8.7295
2023-04-18T07:11:39.193Z,8.7365
2023-04-18T07:12:39.751Z,8.7775
2023-04-18T07:13:41.382Z,8.7946
2023-04-18T07:14:42.012Z,8.7148
2023-04-18T07:15:42.569Z,8.6627
2023-04-18T07:16:43.210Z,8.7547
2023-04-18T07:17:43.768Z,8.7680
2023-04-18T07:18:44.373Z,8.7674
2023-04-18T07:19:45.020Z,8.8934
2023-04-18T07:20:45.591Z,8.9880
2023-04-18T07:21:46.267Z,8.9890
2023-04-18T07:22:46.870Z,8.9817
2023-04-18T07:23:47.494Z,8.9946
2023-04-18T07:24:48.138Z,9.0492
2023-04-18T07:25:48.704Z,9.1106
2023-04-18T07:26:49.263Z,9.1450
2023-04-18T07:27:49.834Z,9.2084
2023-04-18T07:28:50.393Z,9.2338
2023-04-18T07:29:51.015Z,9.2642
2023-04-18T07:30:51.621Z,9.1711
2023-04-18T07:31:52.246Z,9.1269
2023-04-18T07:32:52.878Z,9.2251
2023-04-18T07:33:53.466Z,9.1303
2023-04-18T07:34:54.069Z,9.1836
2023-04-18T07:35:54.622Z,9.1942
2023-04-18T07:36:55.190Z,9.1118
2023-04-18T07:37:55.748Z,9.2220
2023-04-18T07:38:56.347Z,9.2970
2023-04-18T07:39:56.859Z,9.4521
2023-04-18T07:40:57.437Z,9.4431
2023-04-18T07:41:57.981Z,9.2745
2023-04-18T07:42:58.544Z,9.2248
2023-04-18T07:43:59.120Z,9.3299
2023-04-18T07:44:59.746Z,9.3522
2023-04-18T07:46:00.323Z,9.3866
2023-04-18T07:47:00.881Z,9.4104
2023-04-18T07:48:01.448Z,9.4159
2023-04-18T07:49:02.316Z,9.5165
2023-04-18T07:50:02.837Z,9.4846
2023-04-18T07:51:03.354Z,9.4233
2023-04-18T07:52:03.881Z,9.4921
2023-04-18T07:53:04.427Z,9.5153
2023-04-18T07:54:04.973Z,9.6106
2023-04-18T07:55:05.580Z,9.6868
2023-04-18T07:56:06.152Z,9.6887
2023-04-18T07:57:06.734Z,9.7683
2023-04-18T07:58:07.263Z,9.8026
2023-04-18T07:59:07.881Z,9.8401
2023-04-18T08:00:08.415Z,9.8574
2023-04-18T08:01:09.013Z,9.9937
2023-04-18T08:02:09.579Z,9.9812
2023-04-18T08:03:10.193Z,10.1169
2023-04-18T08:04:11.321Z,10.1266
2023-04-18T08:05:12.633Z,10.2731
2023-04-18T08:06:13.224Z,10.1896
2023-04-18T08:07:13.730Z,10.2643
2023-04-18T08:08:14.279Z,10.1891
2023-04-18T08:09:15.253Z,10.1755
2023-04-18T08:10:16.581Z,10.1767
2023-04-18T08:11:17.119Z,10.3241
2023-04-18T08:12:17.668Z,10.4222
2023-04-18T08:13:18.193Z,10.3948
2023-04-18T08:14:18.744Z,10.4686
2023-04-18T08:15:19.256Z,10.4719
2023-04-18T08:16:19.860Z,10.3283
2023-04-18T08:17:20.424Z,10.4768
2023-04-18T08:18:21.023Z,10.5970
2023-04-18T08:19:21.528Z,10.8639
2023-04-18T08:20:22.114Z,10.6902
2023-04-18T08:21:22.814Z,10.6592
2023-04-18T08:22:23.334Z,10.7125
2023-04-18T08:23:23.801Z,10.8286
2023-04-18T08:24:24.309Z,10.9564
2023-04-18T08:25:24.865Z,10.6258
2023-04-18T08:26:25.332Z,10.3542
2023-04-18T08:27:25.880Z,10.1687
2023-04-18T08:28:26.335Z,10.1881
2023-04-18T08:29:26.922Z,10.2354
2023-04-18T08:30:27.421Z,10.2816
2023-04-18T08:31:28.026Z,10.2215
2023-04-18T08:32:28.685Z,10.0608
2023-04-18T08:33:29.211Z,10.0390
2023-04-18T08:34:29.831Z,10.0794
2023-04-18T08:35:30.433Z,10.0973
2023-04-18T08:36:31.030Z,9.9903
2023-04-18T08:37:31.568Z,9.9273
2023-04-18T08:38:32.113Z,9.9182
2023-04-18T08:39:32.624Z,9.7423
2023-04-18T08:40:33.214Z,9.8011
2023-04-18T08:41:33.775Z,9.7731
2023-04-18T08:42:34.305Z,9.7813
2023-04-18T08:43:34.785Z,9.8691
2023-04-18T08:44:35.293Z,10.0681
2023-04-18T08:45:35.955Z,10.2010
2023-04-18T08:46:36.599Z,10.1465
2023-04-18T08:47:37.208Z,10.1226
2023-04-18T08:48:37.773Z,10.0361
2023-04-18T08:49:38.338Z,10.0800
2023-04-18T08:50:38.927Z,10.0858
2023-04-18T08:51:39.470Z,10.1498
2023-04-18T08:52:40.013Z,10.2001
2023-04-18T08:53:40.576Z,10.3724
2023-04-18T08:54:41.069Z,10.6124
2023-04-18T08:55:41.623Z,10.6573
2023-04-18T08:56:42.139Z,10.5750
2023-04-18T08:57:42.657Z,10.6219
2023-04-18T08:58:43.211Z,10.5316
2023-04-18T08:59:44.460Z,10.5171
2023-04-18T09:00:44.772Z,10.6449
2023-04-18T09:01:45.398Z,10.4908
2023-04-18T09:02:45.986Z,10.4718
2023-04-18T09:03:46.654Z,10.5081
2023-04-18T09:04:47.253Z,10.4948
2023-04-18T09:05:47.804Z,10.4880
2023-04-18T09:06:48.301Z,10.4810
2023-04-18T09:07:48.856Z,10.4876
2023-04-18T09:08:49.405Z,10.4779
2023-04-18T09:09:50.006Z,10.5968
2023-04-18T09:10:50.599Z,10.6455
2023-04-18T09:11:51.127Z,10.6997
2023-04-18T09:12:51.649Z,10.6736
2023-04-18T09:13:52.166Z,10.7367
2023-04-18T09:14:52.730Z,11.0026
2023-04-18T09:15:53.288Z,10.9619
2023-04-18T09:16:54.016Z,10.9908
2023-04-18T09:17:54.634Z,10.9951
2023-04-18T09:18:55.108Z,10.7758
2023-04-18T09:19:55.613Z,10.6231
2023-04-18T09:20:56.192Z,10.4869
2023-04-18T09:21:56.713Z,10.3058
2023-04-18T09:22:57.288Z,10.4613
2023-04-18T09:23:57.835Z,10.5672
2023-04-18T09:24:58.360Z,10.3461
2023-04-18T09:25:58.916Z,10.3350
2023-04-18T09:26:59.481Z,10.3694
2023-04-18T09:28:00.010Z,10.4421
2023-04-18T09:29:00.652Z,10.5416
2023-04-18T09:30:01.190Z,10.6777
2023-04-18T09:31:01.891Z,10.7878
2023-04-18T09:32:02.495Z,10.9654
2023-04-18T09:33:03.922Z,10.9558
2023-04-18T09:34:04.525Z,11.0001
2023-04-18T09:35:05.129Z,10.9690
2023-04-18T09:36:05.855Z,10.9933
2023-04-18T09:37:07.501Z,10.9479
2023-04-18T09:38:08.148Z,10.7722
2023-04-18T09:39:08.694Z,10.5862
2023-04-18T09:40:09.443Z,10.4390
2023-04-18T09:41:10.003Z,10.4888
2023-04-18T09:42:10.560Z,10.5498
2023-04-18T09:43:11.101Z,10.7577
2023-04-18T09:44:14.292Z,11.0081
2023-04-18T09:45:13.963Z,11.1206
2023-04-18T09:46:14.563Z,11.1081
2023-04-18T09:47:15.082Z,11.1835
2023-04-18T09:48:16.598Z,11.2010
2023-04-18T09:49:17.664Z,10.9877
2023-04-18T09:50:19.153Z,10.9387
2023-04-18T09:51:19.715Z,10.8166
2023-04-18T09:52:20.216Z,10.7824
2023-04-18T09:53:21.070Z,10.7611
2023-04-18T09:54:21.962Z,10.5510
2023-04-18T09:55:22.684Z,10.5436
2023-04-18T09:56:23.410Z,10.4918
2023-04-18T09:57:24.053Z,10.6376
2023-04-18T09:58:24.544Z,10.8016
2023-04-18T09:59:25.089Z,10.9729
2023-04-18T10:00:25.677Z,11.1261
2023-04-18T10:01:26.301Z,11.2019
2023-04-18T10:02:27.018Z,11.1375
2023-04-18T10:03:27.834Z,11.1050
2023-04-18T10:04:28.566Z,11.2782
2023-04-18T10:05:29.292Z,11.5530
2023-04-18T10:06:29.875Z,11.4712
2023-04-18T10:07:30.370Z,11.6041
2023-04-18T10:08:30.948Z,11.8392
2023-04-18T10:09:31.497Z,12.0564
2023-04-18T10:10:32.201Z,12.0972
2023-04-18T10:11:32.709Z,11.8871
2023-04-18T10:12:33.201Z,11.7410
2023-04-18T10:13:33.731Z,11.6976
2023-04-18T10:14:34.253Z,11.8186
2023-04-18T10:15:34.791Z,11.8531
2023-04-18T10:16:36.304Z,11.9490
2023-04-18T10:17:37.220Z,12.2217
2023-04-18T10:18:37.776Z,12.1901
2023-04-18T10:19:38.529Z,11.9355
2023-04-18T10:20:38.998Z,12.0621
2023-04-18T10:21:39.557Z,12.0179
2023-04-18T10:22:40.032Z,11.8714
2023-04-18T10:23:40.625Z,12.1181
2023-04-18T10:24:41.174Z,12.3888
2023-04-18T10:25:43.170Z,12.5248
2023-04-18T10:27:18.942Z,12.8635
2023-04-18T10:28:19.911Z,12.8834
2023-04-18T10:29:20.811Z,13.0595
2023-04-18T10:30:21.878Z,12.6464
2023-04-18T10:31:22.976Z,12.2502
2023-04-18T10:32:24.098Z,11.8701
2023-04-18T10:33:30.834Z,11.8993
2023-04-18T10:34:26.913Z,11.8593
2023-04-18T10:35:27.899Z,11.4918
2023-04-18T10:36:28.975Z,11.4135
2023-04-18T10:37:29.959Z,11.3263
2023-04-18T10:38:30.997Z,11.2435
2023-04-18T10:39:31.989Z,11.2514
2023-04-18T10:40:32.964Z,11.4556
2023-04-18T10:41:33.938Z,11.6780
2023-04-18T10:42:34.917Z,11.8781
2023-04-18T10:43:35.935Z,12.0537
2023-04-18T10:44:36.916Z,11.9578
2023-04-18T10:45:37.878Z,11.9746
2023-04-18T10:46:38.897Z,11.9693
2023-04-18T10:47:40.053Z,11.8703
2023-04-18T10:48:41.428Z,11.8032
2023-04-18T10:49:42.366Z,12.0604
2023-04-18T10:50:43.340Z,12.1763
2023-04-18T10:51:44.282Z,12.1051
2023-04-18T10:52:45.238Z,12.2607
2023-04-18T10:53:46.194Z,12.2370
2023-04-18T10:54:47.068Z,11.8691
2023-04-18T10:55:47.974Z,11.9648
2023-04-18T10:56:48.903Z,11.9325
2023-04-18T10:57:49.858Z,11.9909
2023-04-18T10:58:50.784Z,12.0138
2023-04-18T10:59:51.894Z,11.7746
2023-04-18T11:00:52.874Z,12.0023
2023-04-18T11:01:53.866Z,12.0627
2023-04-18T11:02:55.015Z,12.3103
2023-04-18T11:03:56.278Z,12.3726
2023-04-18T11:04:57.412Z,12.7190
2023-04-18T11:05:58.305Z,12.5222
2023-04-18T11:06:59.853Z,12.6255
2023-04-18T11:08:00.810Z,12.7073
2023-04-18T11:09:02.386Z,12.5651
2023-04-18T11:10:03.316Z,12.0000
2023-04-18T11:11:04.245Z,11.9133
2023-04-18T11:12:05.177Z,12.1010
2023-04-18T11:13:06.139Z,12.1851
2023-04-18T11:14:07.317Z,11.9382
2023-04-18T11:15:08.298Z,12.0377
2023-04-18T11:16:09.226Z,12.0900
2023-04-18T11:17:10.144Z,12.0723
2023-04-18T11:18:11.063Z,12.3166
2023-04-18T11:19:12.018Z,12.5603
2023-04-18T11:20:12.975Z,12.5498
2023-04-18T11:21:13.883Z,12.6131
2023-04-18T11:22:14.788Z,12.6755
2023-04-18T11:23:15.714Z,12.5264
2023-04-18T11:24:16.648Z,12.8023
2023-04-18T11:25:17.591Z,12.9873
2023-04-18T11:26:18.469Z,12.9415
2023-04-18T11:27:19.363Z,12.5129
2023-04-18T11:28:20.283Z,12.2681
2023-04-18T11:29:21.188Z,12.1459
2023-04-18T11:30:22.085Z,12.1365
2023-04-18T11:31:23.050Z,12.0796
2023-04-18T11:32:24.068Z,12.1480
2023-04-18T11:33:25.308Z,12.3073
2023-04-18T11:34:26.256Z,12.5141
2023-04-18T11:35:27.195Z,12.5227
2023-04-18T11:36:28.123Z,12.4350
2023-04-18T11:37:29.052Z,12.4715
2023-04-18T11:38:29.952Z,12.7717
2023-04-18T11:39:30.848Z,12.9278
2023-04-18T11:40:31.823Z,12.8221
2023-04-18T11:41:32.707Z,12.6703
2023-04-18T11:42:33.617Z,12.4880
2023-04-18T11:43:34.513Z,13.0078
2023-04-18T11:44:36.323Z,13.5494
2023-04-18T11:45:37.494Z,13.4170
2023-04-18T11:46:38.641Z,13.4403
2023-04-18T11:47:39.628Z,13.4822
2023-04-18T11:48:40.574Z,13.7267
2023-04-18T11:49:41.422Z,14.9327
2023-04-18T11:50:42.286Z,15.1748
2023-04-18T11:51:43.125Z,15.2344
2023-04-18T11:52:43.969Z,15.3405
2023-04-18T11:53:44.840Z,15.2790
2023-04-18T11:54:45.674Z,15.0921
2023-04-18T11:55:46.522Z,16.1535
2023-04-18T11:56:47.296Z,16.4083
2023-04-18T11:57:48.144Z,16.5592
2023-04-18T11:58:49.009Z,15.4717
2023-04-18T11:59:49.897Z,15.7963
2023-04-18T12:00:50.713Z,14.6479
2023-04-18T12:01:53.082Z,13.9446
2023-04-18T12:02:52.243Z,13.9871
2023-04-18T12:03:53.377Z,14.1585
2023-04-18T12:04:55.304Z,14.2719
2023-04-18T12:05:55.215Z,14.5771
2023-04-18T12:06:56.544Z,14.7944
2023-04-18T12:07:57.371Z,14.7430
2023-04-18T12:08:58.239Z,15.0994
2023-04-18T12:09:59.033Z,15.0361
2023-04-18T12:10:59.884Z,15.4970
2023-04-18T12:12:00.723Z,14.5779
2023-04-18T12:13:01.586Z,14.1278
2023-04-18T12:14:04.017Z,13.7543
2023-04-18T12:15:02.857Z,13.8685
2023-04-18T12:16:04.752Z,13.8958
2023-04-18T12:17:05.587Z,14.0698
2023-04-18T12:18:06.483Z,14.2497
2023-04-18T12:19:07.303Z,14.3526
2023-04-18T12:20:08.134Z,14.3075
2023-04-18T12:21:08.994Z,14.3502
2023-04-18T12:22:09.830Z,14.3812
2023-04-18T12:23:10.718Z,14.6927
2023-04-18T12:24:12.086Z,15.2450
2023-04-18T12:25:13.522Z,14.9997
2023-04-18T12:26:14.420Z,14.9248
2023-04-18T12:27:15.228Z,15.1795
2023-04-18T12:28:16.081Z,15.5411
2023-04-18T12:29:16.943Z,16.6961